Terminal Aerodrome Forecast
Issued by NWS Boston, MA

Home | Current Version | Previous Version | Text Only | Print | Product List | Glossary On
Versions: 1 2 3 4 5 6 7 8 9 10 11 12 13 14 15 16 17 18 19 20 21 22 23
000
FTUS41 KBOX 241513 AAA
TAFPVD
TAF AMD
KPVD 241513Z 2415/2512 32010G18KT P6SM OVC015
     FM241700 34008KT P6SM OVC025
     FM242000 33008KT P6SM BKN030
     FM250200 32007KT P6SM BKN040
     FM250700 31006KT P6SM SCT100=

USA.gov is the U.S. government's official web portal to all federal, state and local government web resources and services.